Hayes, South Dakota
Current Conditions -  °F | °C
As of 11:55 AM on Friday 24 Oct 2014 (Local Time) from KPHP Reporting Station
Clear Clear  
Wind Chill: 72°   Ceiling: Unl
Heat Index: 72°   Visibility: 10mi
Dew Point: 38°   Wind: 6mph
Humidity: 29%   Direction: 310°NW
Pressure: 29.96"   Gusts: NA
Location:  44.37°N, 101.02°W
Report Text: KPHP 241755Z AUTO 31005KT 10SM CLR 22/03 A2996 RMK AO2 SLP140 T02220033 10222 20022 51005
Loading
Personal Weather Stations






























Interactive Weather Map
Tropical Storm Tracking
New forecast layout! Learn more

10-Day Weather Forecast

Advertisements
Track Severe Weather on mobile